Flight Track Log - Related Links

Times and Time Zones

All times are in EDT time to prevent confusion due to time zone crossing. See the N10QW flight status page for this flight to view local times or setup timezone preferences in your user account.

Time Position Orientation Groundspeed Altitude Reporting Facility
EDT Latitude Longitude Course Direction KTS MPH feet Rate Location/Type
Tue 07:52:49 PM 38.7642 -97.6456 90° East 136 157 2,200  Level Kansas City Center
Tue 07:53:51 PM 38.7467 -97.5953 114° Southeast 186 214 3,800 1,694 Climbing Kansas City Center
Tue 07:54:53 PM 38.7478 -97.5217 89° East 198 228 5,700 1,790 Climbing Kansas City Center
Tue 07:55:55 PM 38.7469 -97.4472 91° East 200 230 7,500 1,887 Climbing Kansas City Center
Tue 07:56:57 PM 38.7467 -97.3764 90° East 193 222 9,600 1,839 Climbing Kansas City Center
Tue 07:57:00 PM 38.7834 -96.9793 90° East  Level FlightAware Approximate
Tue 07:57:59 PM 38.7464 -97.3064 90° East 189 217 11,300  Level Kansas City Center
Tue 07:59:01 PM 38.7461 -97.2347 90° East 193 222 13,100 1,597 Climbing Kansas City Center
Tue 08:00:03 PM 38.7458 -97.1692 90° East 192 221 14,600 1,403 Climbing Kansas City Center
Tue 08:01:05 PM 38.7453 -97.0997 91° East 197 227 16,000 1,306 Climbing Kansas City Center
Tue 08:02:07 PM 38.7447 -97.0275 91° East 202 232 17,300 1,306 Climbing Kansas City Center
Tue 08:03:09 PM 38.7439 -96.9542 91° East 205 236 18,700 1,258 Climbing Kansas City Center
Tue 08:04:11 PM 38.7433 -96.8792 91° East 209 241 19,900 1,258 Climbing Kansas City Center
Tue 08:05:13 PM 38.7428 -96.7892 90° East 210 242 21,300 1,113 Climbing Kansas City Center
Tue 08:06:15 PM 38.7436 -96.7125 89° East 213 245 22,200 823 Climbing Kansas City Center
Tue 08:07:17 PM 38.7433 -96.6347 90° East 217 250 23,000 387 Climbing Kansas City Center
Tue 08:08:19 PM 38.7417 -96.5467 91° East 238 274 23,000  Level Kansas City Center
Tue 08:09:21 PM 38.7414 -96.4517 90° East 264 304 23,000  Level Kansas City Center
Tue 08:10:23 PM 38.7383 -96.3411 92° East 276 318 23,000  Level Kansas City Center
Tue 08:11:25 PM 38.7367 -96.2453 91° East 280 322 23,000  Level Kansas City Center
Tue 08:12:27 PM 38.7353 -96.1367 91° East 276 318 23,000  Level Kansas City Center
Tue 08:13:29 PM 38.7331 -96.0406 92° East 280 322 23,000  Level Kansas City Center
Tue 08:14:31 PM 38.7317 -95.9311 91° East 277 319 23,000  Level Kansas City Center
Tue 08:15:33 PM 38.7297 -95.8358 91° East 279 321 23,000  Level Kansas City Center
Tue 08:16:34 PM 38.7278 -95.7250 91° East 280 322 23,000  Level Kansas City Center
Tue 08:17:36 PM 38.7269 -95.6300 91° East 279 321 23,000  Level Kansas City Center
Tue 08:18:38 PM 38.7236 -95.5194 92° East 279 321 23,000  Level Kansas City Center
Tue 08:19:40 PM 38.7222 -95.4247 91° East 279 321 23,000  Level Kansas City Center
Tue 08:20:42 PM 38.7206 -95.3153 91° East 277 319 23,000  Level Kansas City Center
Tue 08:21:44 PM 38.7181 -95.2206 92° East 277 319 23,000  Level Kansas City Center
Tue 08:22:45 PM 38.7158 -95.1108 91° East 278 320 23,000  Level Kansas City Center
Tue 08:23:47 PM 38.7128 -95.0161 92° East 278 320 23,000  Level Kansas City Center
Tue 08:24:49 PM 38.7117 -94.9208 91° East 280 322 23,000  Level Kansas City Center
Tue 08:25:51 PM 38.7086 -94.8100 92° East 278 320 23,000  Level Kansas City Center
Tue 08:26:52 PM 38.7056 -94.7167 92° East 278 320 23,000  Level Kansas City Center
Tue 08:27:54 PM 38.7033 -94.6058 91° East 279 321 23,000  Level Kansas City Center
Tue 08:28:56 PM 38.6997 -94.5106 93° East 279 321 23,000  Level Kansas City Center
Tue 08:29:58 PM 38.6972 -94.4000 92° East 279 321 23,000  Level Kansas City Center
Tue 08:30:59 PM 38.6942 -94.3056 92° East 277 319 23,000  Level Kansas City Center
Tue 08:32:01 PM 38.6914 -94.1950 92° East 279 321 23,000  Level Kansas City Center
Tue 08:33:03 PM 38.6881 -94.0989 93° East 280 322 23,000  Level Kansas City Center
Tue 08:34:05 PM 38.6853 -94.0042 92° East 279 321 23,000  Level Kansas City Center
Tue 08:35:06 PM 38.6808 -93.8928 93° East 281 323 23,000  Level Kansas City Center
Tue 08:36:08 PM 38.6772 -93.7978 93° East 280 322 23,000  Level Kansas City Center
Tue 08:37:10 PM 38.6744 -93.6819 92° East 283 326 23,000  Level Kansas City Center
Tue 08:38:11 PM 38.6714 -93.5814 92° East 283 326 23,000  Level Kansas City Center
Tue 08:39:13 PM 38.6678 -93.4811 93° East 282 325 23,000  Level Kansas City Center
Tue 08:40:15 PM 38.6636 -93.3800 93° East 283 326 23,000  Level Kansas City Center
Tue 08:41:16 PM 38.6600 -93.2789 93° East 283 326 23,000  Level Kansas City Center
Tue 08:42:18 PM 38.6556 -93.1775 93° East 285 328 23,000  Level Kansas City Center
Tue 08:43:20 PM 38.6511 -93.0769 93° East 284 327 23,000  Level Kansas City Center
Tue 08:44:21 PM 38.6464 -92.9761 93° East 282 325 23,000  Level Kansas City Center
Tue 08:45:23 PM 38.6422 -92.8542 92° East 284 327 23,000  Level Kansas City Center
Tue 08:46:25 PM 38.6375 -92.7519 93° East 286 329 23,000  Level Kansas City Center
Tue 08:47:27 PM 38.6328 -92.6497 93° East 287 330 23,000  Level Kansas City Center
Tue 08:48:28 PM 38.6283 -92.5467 93° East 287 330 23,000  Level Kansas City Center
Tue 08:49:30 PM 38.6242 -92.4436 93° East 289 333 23,000  Level Kansas City Center
Tue 08:50:32 PM 38.6192 -92.3381 93° East 293 337 23,000  Level Kansas City Center
Tue 08:51:34 PM 38.6144 -92.2350 93° East 291 335 23,000  Level Kansas City Center
Tue 08:52:35 PM 38.6089 -92.1319 94° East 290 334 23,000  Level Kansas City Center
Tue 08:53:37 PM 38.6044 -92.0281 93° East 291 335 23,000  Level Kansas City Center
Tue 08:54:39 PM 38.5975 -91.9036 94° East 291 335 23,000  Level Kansas City Center
Tue 08:55:41 PM 38.5922 -91.8000 94° East 292 336 23,000  Level Kansas City Center
Tue 08:56:42 PM 38.5875 -91.6969 93° East 291 335 23,000  Level Kansas City Center
Tue 08:57:44 PM 38.5814 -91.5928 94° East 292 336 23,000  Level Kansas City Center
Tue 08:58:46 PM 38.5767 -91.4892 93° East 292 336 23,000  Level Kansas City Center
Tue 08:59:48 PM 38.5703 -91.3850 94° East 292 336 23,000  Level Kansas City Center
Tue 09:00:49 PM 38.5644 -91.2731 94° East 293 337 23,000  Level Kansas City Center
Tue 09:01:51 PM 38.5581 -91.1703 95° East 291 335 23,000  Level Kansas City Center
Tue 09:02:53 PM 38.5517 -91.0664 94° East 293 337 23,000  Level Kansas City Center
Tue 09:03:54 PM 38.5458 -90.9633 94° East 293 337 23,000  Level Kansas City Center
Tue 09:04:56 PM 38.5397 -90.8606 94° East 292 336 23,000  Level Kansas City Center
Tue 09:05:58 PM 38.5336 -90.7564 94° East 294 338 23,000  Level Kansas City Center
Tue 09:07:00 PM 38.5256 -90.6356 95° East 295 339 23,000  Level Kansas City Center
Tue 09:08:01 PM 38.5178 -90.5317 95° East 295 339 23,000  Level Kansas City Center
Tue 09:09:03 PM 38.5119 -90.4269 94° East 295 339 23,000  Level Kansas City Center
Tue 09:10:05 PM 38.5047 -90.3225 95° East 295 339 23,000  Level Kansas City Center
Tue 09:11:06 PM 38.4989 -90.2172 94° East 300 345 23,000  Level Kansas City Center
Tue 09:12:08 PM 38.4914 -90.0953 94° East 293 337 23,000  Level Kansas City Center
Tue 09:13:10 PM 38.4836 -89.9897 95° East 299 344 23,000  Level Kansas City Center
Tue 09:14:11 PM 38.4761 -89.8856 95° East 297 342 23,000  Level Kansas City Center
Tue 09:15:13 PM 38.4692 -89.7822 95° East 296 341 23,000  Level Kansas City Center
Tue 09:16:15 PM 38.4622 -89.6658 94° East 296 341 23,000  Level Kansas City Center
Tue 09:17:17 PM 38.4547 -89.5536 95° East 296 341 23,000  Level Kansas City Center
Tue 09:18:18 PM 38.4472 -89.4494 95° East 297 342 23,000  Level Kansas City Center
Tue 09:19:20 PM 38.4394 -89.3453 95° East 298 343 23,000  Level Kansas City Center
Tue 09:20:22 PM 38.4314 -89.2339 95° East 297 342 23,000  Level Kansas City Center
Tue 09:21:24 PM 38.4236 -89.1297 95° East 297 342 23,000  Level Kansas City Center
Tue 09:22:25 PM 38.4156 -89.0169 95° East 296 341 23,000  Level Kansas City Center
Tue 09:23:27 PM 38.4075 -88.9133 96° East 295 339 23,000  Level Kansas City Center
Tue 09:24:29 PM 38.3994 -88.8067 95° East 302 348 23,000  Level Kansas City Center
Tue 09:25:31 PM 38.3906 -88.6928 96° East 302 348 23,000  Level Kansas City Center
Tue 09:26:32 PM 38.3811 -88.5906 97° East 300 345 23,000  Level Kansas City Center
Tue 09:27:34 PM 38.3733 -88.4850 95° East 299 344 23,000  Level Kansas City Center
Tue 09:28:36 PM 38.3650 -88.3794 96° East 299 344 23,000  Level Kansas City Center
Tue 09:29:37 PM 38.3561 -88.2747 96° East 298 343 23,000  Level Kansas City Center
Tue 09:30:39 PM 38.3478 -88.1706 96° East 296 341 23,000  Level Kansas City Center
Tue 09:31:41 PM 38.3381 -88.0636 97° East 301 346 23,000  Level Kansas City Center
Tue 09:31:59 PM 38.3353 -88.0217 95° East 300 345 23,000  Level Indianapolis Center
Tue 09:33:00 PM 38.3269 -87.9183 96° East 296 341 23,000  Level Indianapolis Center
Tue 09:34:02 PM 38.3183 -87.8139 96° East 297 342 23,000  Level Indianapolis Center
Tue 09:35:03 PM 38.3092 -87.7089 96° East 297 342 23,000  Level Indianapolis Center
Tue 09:36:04 PM 38.3000 -87.6042 96° East 297 342 23,000  Level Indianapolis Center
Tue 09:37:06 PM 38.2900 -87.4986 97° East 298 343 23,000  Level Indianapolis Center
Tue 09:38:08 PM 38.2789 -87.3725 96° East 299 344 23,000  Level Indianapolis Center
Tue 09:39:09 PM 38.2694 -87.2669 96° East 301 346 23,000  Level Indianapolis Center
Tue 09:40:11 PM 38.2594 -87.1608 97° East 303 349 23,000  Level Indianapolis Center
Tue 09:41:12 PM 38.2506 -87.0592 96° East 306 352 23,000  Level Indianapolis Center
Tue 09:42:14 PM 38.2408 -86.9531 97° East 302 348 23,000  Level Indianapolis Center
Tue 09:43:15 PM 38.2306 -86.8475 97° East 302 348 23,000  Level Indianapolis Center
Tue 09:44:17 PM 38.2189 -86.7206 97° East 302 348 23,000  Level Indianapolis Center
Tue 09:45:18 PM 38.2083 -86.6131 97° East 305 351 23,000  Level Indianapolis Center
Tue 09:46:19 PM 38.1983 -86.5081 97° East 299 344 23,000  Level Indianapolis Center
Tue 09:47:21 PM 38.1878 -86.4014 97° East 303 349 23,000  Level Indianapolis Center
Tue 09:48:22 PM 38.1775 -86.2956 97° East 302 348 23,000  Level Indianapolis Center
Tue 09:49:24 PM 38.1667 -86.1869 97° East 308 354 23,000  Level Indianapolis Center
Tue 09:50:25 PM 38.1558 -86.0822 97° East 300 345 23,000 -689 Level Indianapolis Center
Tue 09:51:26 PM 38.1439 -85.9711 98° East 314 361 21,600 -1,561 Descending Indianapolis Center
Tue 09:52:28 PM 38.1322 -85.8533 97° East 331 381 19,800 -1,756 Descending Indianapolis Center
Tue 09:53:29 PM 38.1203 -85.7378 97° East 328 377 18,000 -1,854 Descending Indianapolis Center
Tue 09:54:31 PM 38.1067 -85.6019 97° East 324 373 16,000 -1,805 Descending Indianapolis Center
Tue 09:55:32 PM 38.0967 -85.4900 96° East 317 365 14,300 -1,672 Descending Indianapolis Center
Tue 09:56:33 PM 38.0914 -85.3806 93° East 313 360 12,600 -1,561 Descending Indianapolis Center
Tue 09:57:35 PM 38.0833 -85.2717 95° East 311 358 11,100 -780 Descending Indianapolis Center
Tue 09:58:36 PM 38.0775 -85.1686 94° East 287 330 11,000 -49 Descending Indianapolis Center
Tue 09:59:37 PM 38.0722 -85.0764 94° East 267 307 11,000 -439 Level Indianapolis Center
Tue 10:00:39 PM 38.0744 -84.9833 88° East 263 303 10,100 -1,317 Descending Indianapolis Center
Tue 10:01:40 PM 38.0761 -84.8858 89° East 272 313 8,300 -1,770 Descending Indianapolis Center
Tue 10:02:41 PM 38.0783 -84.7944 88° East 263 303 6,500 -1,756 Descending Indianapolis Center
Tue 10:03:43 PM 38.0828 -84.7042 86° East 257 296 4,700 -1,707 Descending Indianapolis Center
Tue 10:04:44 PM 38.1019 -84.6231 73° East 245 282 3,000 -1,672 Descending Indianapolis Center
Tue 10:06:00 PM 38.0333 -84.6000 90° East  Level FlightAware Approximate
Tue 10:13:00 PM 38.0368 -84.6086 90° East  Level Estimated
Tue 10:14:00 PM 38.0368 -84.6086 90° East  Level Estimated
Tue 10:15:00 PM 38.0368 -84.6086 90° East  Level Estimated

Login

Don't have an account? Register now (free) for customized features, flight alerts, and more!